• Join FlightAware (Why Join?)
  • Login
  • US Flag 
12:50PM EDT


 

Airport Tracker/Info


-or-


 

Live Flight TrackerFlight Track Log ✈ UAL1611 ✈ 28-Feb-2012 ✈ KEWR - KIAH

Flight Track Log - Related Links

Times and Time Zones

All times are in EST time to prevent confusion due to time zone crossing. See the UAL1611 flight status page for this flight to view local times or setup timezone preferences in your user account.

Time Position Orientation Groundspeed Altitude Reporting Facility
EST Latitude Longitude Course Direction KTS MPH feet Rate Location/Type
12:23AM 40.6299 -74.2749 262° West 221 254 5,300  Level FlightAware ADS-B
12:23AM 40.6292 -74.2814 260° West 225 259 5,500 3,000 Climbing FlightAware ADS-B
12:24AM 40.6282 -74.2886 255° West 228 262 5,800 3,960 Climbing FlightAware ADS-B
12:24AM 40.6271 -74.2939 253° West 229 264 6,100 4,260 Climbing FlightAware ADS-B
12:24AM 40.6262 -74.2978 251° West 227 261 6,300 5,100 Climbing FlightAware ADS-B
12:24AM 40.6249 -74.3027 248° West 226 260 6,700 4,200 Climbing FlightAware ADS-B
12:24AM 40.6187 -74.3229 247° West 225 259 7,700 3,660 Climbing FlightAware ADS-B
12:24AM 40.6126 -74.3419 247° West 228 262 8,600 3,360 Climbing FlightAware ADS-B
12:24AM 40.6062 -74.3619 248° West 235 270 9,400 2,760 Climbing FlightAware ADS-B
12:25AM 40.5932 -74.4037 248° West 259 298 10,700 1,740 Climbing FlightAware ADS-B
12:26AM 40.5780 -74.4530 247° West 310 357 11,200 1,320 Climbing FlightAware ADS-B
12:26AM 40.5601 -74.5090 247° West 336 387 12,100 2,340 Climbing FlightAware ADS-B
12:27AM 40.5412 -74.5686 247° West 343 395 13,600 2,880 Climbing FlightAware ADS-B
12:27AM 40.5225 -74.6278 247° West 346 398 15,100 2,940 Climbing FlightAware ADS-B
12:28AM 40.5039 -74.6865 247° West 351 404 16,600 2,700 Climbing FlightAware ADS-B
12:28AM 40.4856 -74.7443 247° West 356 410 17,800 2,280 Climbing FlightAware ADS-B
12:28AM 40.4766 -74.7725 243° Southwest 358 412 18,300 2,400 Climbing FlightAware ADS-B
12:28AM 40.4663 -74.7990 237° Southwest 364 419 18,900 2,400 Climbing FlightAware ADS-B
12:29AM 40.4541 -74.8241 234° Southwest 372 428 19,400 2,400 Climbing FlightAware ADS-B
12:29AM 40.4221 -74.8814 234° Southwest 377 434 20,700 2,520 Climbing FlightAware ADS-B
12:30AM 40.3910 -74.9368 234° Southwest 378 435 22,000 2,400 Climbing FlightAware ADS-B
12:30AM 40.3593 -74.9932 234° Southwest 376 433 23,200 2,400 Climbing FlightAware ADS-B
12:31AM 40.3286 -75.0481 234° Southwest 373 429 24,500 2,400 Climbing FlightAware ADS-B
12:31AM 40.2979 -75.1027 234° Southwest 371 427 25,600 1,920 Climbing FlightAware ADS-B
12:32AM 40.2665 -75.1587 234° Southwest 375 432 26,500 1,740 Climbing FlightAware ADS-B
12:32AM 40.2351 -75.2145 233° Southwest 379 436 27,400 1,500 Climbing FlightAware ADS-B
12:33AM 40.2037 -75.2700 234° Southwest 384 442 28,000 600 Climbing FlightAware ADS-B
12:33AM 40.1712 -75.3275 234° Southwest 395 455 28,000  Level FlightAware ADS-B
12:34AM 40.1363 -75.3892 235° Southwest 398 458 28,000  Level FlightAware ADS-B
12:34AM 40.1237 -75.4125 241° Southwest 396 456 28,000  Level FlightAware ADS-B
12:35AM 40.0971 -75.4764 243° Southwest 390 449 28,000  Level FlightAware ADS-B
12:35AM 40.0720 -75.5396 243° Southwest 390 449 28,000  Level FlightAware ADS-B
12:36AM 40.0470 -75.6027 243° Southwest 390 449 28,000  Level FlightAware ADS-B
12:36AM 40.0218 -75.6669 243° Southwest 392 451 28,000  Level FlightAware ADS-B
12:37AM 39.9966 -75.7307 243° Southwest 395 455 28,000  Level FlightAware ADS-B
12:37AM 39.9711 -75.7946 242° Southwest 397 457 28,000  Level FlightAware ADS-B
12:38AM 39.9449 -75.8595 242° Southwest 399 459 28,000  Level FlightAware ADS-B
12:38AM 39.9191 -75.9238 242° Southwest 399 459 28,000  Level FlightAware ADS-B
12:39AM 39.8926 -75.9893 242° Southwest 399 459 28,000  Level FlightAware ADS-B
12:39AM 39.8667 -76.0535 242° Southwest 399 459 28,000  Level FlightAware ADS-B
12:40AM 39.8409 -76.1176 242° Southwest 399 459 28,000  Level FlightAware ADS-B
12:40AM 39.8112 -76.1908 242° Southwest 399 459 28,000  Level FlightAware ADS-B
12:41AM 39.7839 -76.2578 242° Southwest 399 459 28,000  Level FlightAware ADS-B
12:41AM 39.7710 -76.2896 242° Southwest 399 459 28,000  Level FlightAware ADS-B
12:41AM 39.7450 -76.3531 242° Southwest 399 459 28,000  Level FlightAware ADS-B
12:42AM 39.7185 -76.4183 242° Southwest 400 460 28,000  Level FlightAware ADS-B
12:42AM 39.6917 -76.4838 242° Southwest 400 460 28,000  Level FlightAware ADS-B
12:43AM 39.6655 -76.5483 242° Southwest 402 463 28,000  Level FlightAware ADS-B
12:43AM 39.6387 -76.6137 242° Southwest 403 464 28,000  Level FlightAware ADS-B
12:44AM 39.6118 -76.6790 242° Southwest 404 465 28,000  Level FlightAware ADS-B
12:45AM 39.5852 -76.7434 242° Southwest 405 466 28,000  Level FlightAware ADS-B
12:45AM 39.5585 -76.8082 242° Southwest 406 467 28,000  Level FlightAware ADS-B
12:46AM 39.5312 -76.8748 242° Southwest 408 470 28,000  Level FlightAware ADS-B
12:46AM 39.5040 -76.9404 242° Southwest 411 473 28,000  Level FlightAware ADS-B
12:47AM 39.4759 -77.0076 242° Southwest 413 475 28,000  Level FlightAware ADS-B
12:47AM 39.4454 -77.0808 241° Southwest 412 474 28,000  Level FlightAware ADS-B
12:48AM 39.3944 -77.2018 242° Southwest 408 470 28,000  Level FlightAware ADS-B
12:49AM 39.3256 -77.3703 241° Southwest 414 476 28,000  Level Washington Center
12:50AM 39.2714 -77.4978 241° Southwest 414 476 28,000  Level Washington Center
12:51AM 39.2150 -77.6275 241° Southwest 414 476 28,000  Level Washington Center
12:52AM 39.1608 -77.7544 241° Southwest 414 476 28,000  Level Washington Center
12:53AM 39.1064 -77.8814 241° Southwest 414 476 28,000  Level Washington Center
12:54AM 39.0517 -78.0081 241° Southwest 414 476 28,000  Level Washington Center
12:55AM 38.9950 -78.1369 241° Southwest 414 476 28,000  Level Washington Center
12:56AM 38.9333 -78.2789 241° Southwest 414 476 28,000  Level Washington Center
12:57AM 38.8806 -78.4022 241° Southwest 414 476 28,000  Level Washington Center
12:59AM 38.8233 -78.5333 240° Southwest 437 503 28,000  Level Washington Center
01:00AM 38.7658 -78.6617 241° Southwest 426 490 28,000  Level Washington Center
01:01AM 38.7103 -78.7894 240° Southwest 426 490 28,000  Level Washington Center
01:02AM 38.6506 -78.9225 240° Southwest 426 490 28,000  Level Washington Center
01:03AM 38.5928 -79.0503 241° Southwest 426 490 28,000  Level Washington Center
01:04AM 38.5344 -79.1828 243° Southwest 426 490 28,000  Level Washington Center
01:05AM 38.4758 -79.3311 240° Southwest 431 496 28,000  Level Washington Center
01:06AM 38.4242 -79.4453 240° Southwest 425 489 28,000  Level Washington Center
01:07AM 38.3656 -79.5772 240° Southwest 425 489 28,000  Level Washington Center
01:08AM 38.3050 -79.7089 240° Southwest 431 496 28,000  Level Washington Center
01:09AM 38.2417 -79.8508 240° Southwest 431 496 28,000  Level Washington Center
01:10AM 38.1828 -79.9794 240° Southwest 431 496 28,000  Level Washington Center
01:11AM 38.1236 -80.1081 239° Southwest 431 496 28,000  Level Washington Center
01:12AM 38.0314 -80.3058 239° Southwest 439 505 28,000  Level Indianapolis Center
01:13AM 37.9703 -80.4350 238° Southwest 434 499 28,000  Level Indianapolis Center
01:14AM 37.9047 -80.5667 240° Southwest 423 487 28,000  Level Indianapolis Center
01:15AM 37.8453 -80.6956 240° Southwest 423 487 28,000  Level Indianapolis Center
01:16AM 37.7839 -80.8292 240° Southwest 430 495 28,000  Level Indianapolis Center
01:17AM 37.7322 -80.9442 238° Southwest 435 501 28,000  Level Indianapolis Center
01:18AM 37.6703 -81.0669 239° Southwest 435 501 28,000  Level Indianapolis Center
01:20AM 37.5545 -81.3117 239° Southwest 428 493 28,000  Level FlightAware ADS-B
01:20AM 37.5235 -81.3766 239° Southwest 428 493 28,000  Level FlightAware ADS-B
01:21AM 37.4928 -81.4409 239° Southwest 429 494 28,000  Level FlightAware ADS-B
01:22AM 37.4575 -81.5147 239° Southwest 430 495 28,000  Level FlightAware ADS-B
01:22AM 37.4244 -81.5834 239° Southwest 429 494 28,000  Level FlightAware ADS-B
01:23AM 37.3932 -81.6481 239° Southwest 430 495 28,000  Level FlightAware ADS-B
01:23AM 37.3515 -81.7347 239° Southwest 430 495 28,000  Level FlightAware ADS-B
01:24AM 37.3044 -81.8339 238° Southwest 435 501 28,000  Level Indianapolis Center
01:25AM 37.2414 -81.9603 239° Southwest 435 501 28,000  Level Indianapolis Center
01:26AM 37.1744 -82.1000 239° Southwest 435 501 28,000  Level Indianapolis Center
01:27AM 37.1114 -82.2289 238° Southwest 434 499 28,000  Level Indianapolis Center
01:28AM 37.0842 -82.2825 238° Southwest 437 503 28,000  Level Atlanta Center
01:30AM 36.9585 -82.5384 238° Southwest 429 494 28,000  Level FlightAware ADS-B
01:30AM 36.9263 -82.6035 238° Southwest 427 491 28,000  Level FlightAware ADS-B
01:31AM 36.8936 -82.6697 238° Southwest 427 491 28,000  Level FlightAware ADS-B
01:31AM 36.8618 -82.7332 238° Southwest 427 491 28,000  Level FlightAware ADS-B
01:32AM 36.8300 -82.7969 238° Southwest 427 491 28,000  Level FlightAware ADS-B
01:32AM 36.7986 -82.8600 238° Southwest 428 493 28,000  Level FlightAware ADS-B
01:33AM 36.7644 -82.9285 238° Southwest 428 493 28,000  Level FlightAware ADS-B
01:33AM 36.7327 -82.9914 238° Southwest 429 494 28,000  Level FlightAware ADS-B
01:34AM 36.7003 -83.0559 238° Southwest 430 495 28,000  Level FlightAware ADS-B
01:34AM 36.6658 -83.1245 238° Southwest 431 496 28,000  Level FlightAware ADS-B
01:35AM 36.6342 -83.1873 238° Southwest 432 497 28,000  Level FlightAware ADS-B
01:36AM 36.5777 -83.2991 238° Southwest 433 498 28,000  Level FlightAware ADS-B
01:36AM 36.5452 -83.3633 238° Southwest 433 498 28,000  Level FlightAware ADS-B
01:37AM 36.5131 -83.4266 238° Southwest 433 498 28,000  Level FlightAware ADS-B
01:37AM 36.4809 -83.4897 238° Southwest 433 498 28,000  Level FlightAware ADS-B
01:38AM 36.4486 -83.5531 238° Southwest 433 498 28,000  Level FlightAware ADS-B
01:38AM 36.4162 -83.6167 238° Southwest 433 498 28,000  Level FlightAware ADS-B
01:39AM 36.3838 -83.6800 238° Southwest 433 498 28,000  Level FlightAware ADS-B
01:39AM 36.3512 -83.7436 238° Southwest 435 501 28,000  Level FlightAware ADS-B
01:40AM 36.3183 -83.8077 237° Southwest 435 501 28,000  Level FlightAware ADS-B
01:40AM 36.2831 -83.8761 237° Southwest 435 501 28,000  Level FlightAware ADS-B
01:41AM 36.2502 -83.9399 237° Southwest 434 499 28,000  Level FlightAware ADS-B
01:41AM 36.2178 -84.0024 237° Southwest 433 498 28,000  Level FlightAware ADS-B
01:42AM 36.1837 -84.0684 237° Southwest 432 497 28,000  Level FlightAware ADS-B
01:42AM 36.1501 -84.1335 237° Southwest 432 497 28,000  Level FlightAware ADS-B
01:43AM 36.1186 -84.1941 237° Southwest 432 497 28,000  Level FlightAware ADS-B
01:43AM 36.0837 -84.2614 237° Southwest 432 497 28,000  Level FlightAware ADS-B
01:44AM 36.0511 -84.3237 237° Southwest 432 497 28,000  Level FlightAware ADS-B
01:44AM 36.0177 -84.3875 237° Southwest 432 497 28,000  Level FlightAware ADS-B
01:45AM 35.9853 -84.4495 237° Southwest 433 498 28,000  Level FlightAware ADS-B
01:45AM 35.9517 -84.5136 237° Southwest 433 498 28,000  Level FlightAware ADS-B
01:46AM 35.9184 -84.5770 237° Southwest 434 499 28,000  Level FlightAware ADS-B
01:46AM 35.8854 -84.6396 237° Southwest 434 499 28,000  Level FlightAware ADS-B
01:47AM 35.8524 -84.7024 237° Southwest 434 499 28,000  Level FlightAware ADS-B
01:47AM 35.8190 -84.7656 237° Southwest 434 499 28,000  Level FlightAware ADS-B
01:48AM 35.7820 -84.8355 237° Southwest 434 499 28,000  Level FlightAware ADS-B
01:48AM 35.7486 -84.8985 237° Southwest 434 499 28,000  Level FlightAware ADS-B
01:49AM 35.7154 -84.9611 237° Southwest 434 499 28,000  Level FlightAware ADS-B
01:49AM 35.6823 -85.0234 237° Southwest 434 499 28,000  Level FlightAware ADS-B
01:50AM 35.6489 -85.0862 237° Southwest 435 501 28,000  Level FlightAware ADS-B
01:50AM 35.6158 -85.1484 237° Southwest 436 502 28,000  Level FlightAware ADS-B
01:51AM 35.5822 -85.2110 237° Southwest 436 502 28,000  Level FlightAware ADS-B
01:51AM 35.5489 -85.2731 237° Southwest 437 503 28,000  Level FlightAware ADS-B
01:52AM 35.5145 -85.3372 237° Southwest 437 503 28,000  Level FlightAware ADS-B
01:52AM 35.4806 -85.4001 237° Southwest 437 503 28,000  Level FlightAware ADS-B
01:53AM 35.4472 -85.4623 236° Southwest 437 503 28,000  Level FlightAware ADS-B
01:54AM 35.4004 -85.5488 236° Southwest 437 503 28,000  Level FlightAware ADS-B
01:54AM 35.3665 -85.6115 236° Southwest 437 503 28,000  Level FlightAware ADS-B
01:55AM 35.3319 -85.6753 236° Southwest 438 504 28,000  Level FlightAware ADS-B
01:55AM 35.2964 -85.7409 236° Southwest 438 504 28,000  Level FlightAware ADS-B
01:56AM 35.2626 -85.8030 236° Southwest 438 504 28,000  Level FlightAware ADS-B
01:56AM 35.2196 -85.8811 236° Southwest 439 505 28,000  Level FlightAware ADS-B
01:57AM 35.1852 -85.9437 236° Southwest 439 505 28,000  Level FlightAware ADS-B
01:57AM 35.1506 -86.0069 236° Southwest 441 507 28,000  Level FlightAware ADS-B
01:58AM 35.1138 -86.0743 236° Southwest 441 507 28,000  Level FlightAware ADS-B
01:58AM 35.0781 -86.1397 236° Southwest 441 507 28,000  Level FlightAware ADS-B
02:00AM 35.0033 -86.2753 236° Southwest 435 501 28,000  Level Atlanta Center
02:01AM 34.9406 -86.3903 235° Southwest 435 501 28,000  Level Atlanta Center
02:02AM 34.8714 -86.5122 237° Southwest 441 507 28,000  Level Atlanta Center
02:03AM 34.8042 -86.6367 235° Southwest 441 507 28,000  Level Atlanta Center
02:04AM 34.7325 -86.7608 237° Southwest 446 513 28,000  Level Atlanta Center
02:04AM 34.6903 -86.8389 235° Southwest 447 514 28,000  Level Memphis Center
02:05AM 34.6186 -86.9653 236° Southwest 454 522 28,000  Level Memphis Center
02:06AM 34.5492 -87.0892 234° Southwest 454 522 28,000  Level Memphis Center
02:07AM 34.4850 -87.1975 236° Southwest 454 522 28,000  Level Memphis Center
02:08AM 34.4092 -87.3336 236° Southwest 454 522 28,000  Level Memphis Center
02:09AM 34.3372 -87.4619 235° Southwest 454 522 28,000  Level Memphis Center
02:10AM 34.2669 -87.5825 236° Southwest 454 522 28,000  Level Memphis Center
02:11AM 34.2067 -87.6925 235° Southwest 448 516 28,000  Level Memphis Center
02:12AM 34.1361 -87.8125 236° Southwest 454 522 28,000  Level Memphis Center
02:13AM 34.0636 -87.9400 234° Southwest 459 528 28,000  Level Memphis Center
02:14AM 33.9886 -88.0625 236° Southwest 459 528 28,000  Level Memphis Center
02:15AM 33.9178 -88.1869 236° Southwest 459 528 28,000  Level Memphis Center
02:16AM 33.8450 -88.3164 234° Southwest 459 528 28,000  Level Memphis Center
02:17AM 33.7717 -88.4381 235° Southwest 459 528 28,000  Level Memphis Center
02:18AM 33.6983 -88.5644 235° Southwest 459 528 28,000  Level Memphis Center
02:19AM 33.6250 -88.6883 234° Southwest 459 528 28,000  Level Memphis Center
02:20AM 33.5514 -88.8117 236° Southwest 459 528 28,000  Level Memphis Center
02:21AM 33.4758 -88.9450 234° Southwest 459 528 28,000  Level Memphis Center
02:22AM 33.4019 -89.0683 235° Southwest 459 528 28,000  Level Memphis Center
02:23AM 33.3303 -89.1886 234° Southwest 454 522 28,000  Level Memphis Center
02:24AM 33.2583 -89.3089 234° Southwest 454 522 28,000  Level Memphis Center
02:25AM 33.1861 -89.4289 234° Southwest 454 522 28,000  Level Memphis Center
02:26AM 33.1158 -89.5436 234° Southwest 454 522 28,000  Level Memphis Center
02:27AM 33.0436 -89.6633 234° Southwest 454 522 28,000  Level Memphis Center
02:28AM 32.9856 -89.7603 234° Southwest 454 522 28,000  Level Memphis Center
02:29AM 32.8986 -89.9019 233° Southwest 459 528 28,000  Level Memphis Center
02:30AM 32.8322 -90.0086 234° Southwest 452 520 28,000  Level Memphis Center
02:31AM 32.7614 -90.1250 234° Southwest 452 520 28,000  Level Memphis Center
02:32AM 32.6906 -90.2389 234° Southwest 447 514 28,000  Level Memphis Center
02:33AM 32.6197 -90.3525 234° Southwest 447 514 28,000  Level Memphis Center
02:34AM 32.5403 -90.4831 233° Southwest 442 509 28,000  Level Memphis Center
02:35AM 32.4692 -90.5961 233° Southwest 442 509 28,000  Level Memphis Center
02:36AM 32.3958 -90.7117 235° Southwest 442 509 28,000  Level Memphis Center
02:38AM 32.2719 -90.9200 232° Southwest 455 524 28,000 -300 Level Houston Center
02:39AM 32.1975 -91.0333 234° Southwest 450 518 27,200 -900 Descending Houston Center
02:40AM 32.1272 -91.1467 233° Southwest 450 518 26,200 -840 Descending Houston Center
02:41AM 32.0567 -91.2572 234° Southwest 445 512 25,600 -840 Descending Houston Center
02:42AM 31.9861 -91.3722 232° Southwest 439 505 24,600 -840 Descending Houston Center
02:43AM 31.9131 -91.4825 238° Southwest 439 505 24,000 -300 Descending Houston Center
02:44AM 31.8508 -91.6000 238° Southwest 439 505 24,000  Level Houston Center
02:45AM 31.7903 -91.7147 238° Southwest 427 491 24,000  Level Houston Center
02:46AM 31.7275 -91.8319 238° Southwest 427 491 24,000  Level Houston Center
02:47AM 31.6647 -91.9511 237° Southwest 433 498 24,000  Level Houston Center
02:48AM 31.5978 -92.0728 239° Southwest 438 504 24,000  Level Houston Center
02:49AM 31.5347 -92.1944 238° Southwest 438 504 24,000  Level Houston Center
02:51AM 31.4274 -92.3918 238° Southwest 429 494 24,000  Level FlightAware ADS-B
02:51AM 31.3957 -92.4506 238° Southwest 426 490 24,000  Level FlightAware ADS-B
02:52AM 31.3642 -92.5092 238° Southwest 425 489 24,000  Level FlightAware ADS-B
02:52AM 31.3328 -92.5674 238° Southwest 424 488 24,000  Level FlightAware ADS-B
02:53AM 31.3004 -92.6274 238° Southwest 424 488 24,000  Level FlightAware ADS-B
02:53AM 31.2553 -92.7106 237° Southwest 426 490 24,000  Level FlightAware ADS-B
02:54AM 31.2235 -92.7689 238° Southwest 426 490 24,000  Level FlightAware ADS-B
02:54AM 31.1901 -92.8302 238° Southwest 426 490 24,000  Level FlightAware ADS-B
02:55AM 31.1575 -92.8902 237° Southwest 426 490 24,000  Level FlightAware ADS-B
02:55AM 31.1253 -92.9491 237° Southwest 427 491 24,000  Level FlightAware ADS-B
02:56AM 31.0923 -93.0094 237° Southwest 426 490 24,000  Level FlightAware ADS-B
02:56AM 31.0601 -93.0681 237° Southwest 426 490 24,000  Level FlightAware ADS-B
02:57AM 31.0282 -93.1265 237° Southwest 425 489 24,000  Level FlightAware ADS-B
02:57AM 30.9961 -93.1851 237° Southwest 426 490 24,000  Level FlightAware ADS-B
02:58AM 30.9640 -93.2433 237° Southwest 427 491 24,000  Level FlightAware ADS-B
02:58AM 30.9319 -93.3017 237° Southwest 429 494 24,000  Level FlightAware ADS-B
02:59AM 30.8997 -93.3600 237° Southwest 429 494 24,000  Level FlightAware ADS-B
02:59AM 30.8675 -93.4184 237° Southwest 428 493 24,000  Level FlightAware ADS-B
03:00AM 30.8354 -93.4764 237° Southwest 428 493 24,000  Level FlightAware ADS-B
03:00AM 30.8034 -93.5343 237° Southwest 426 490 24,000 -120 Level FlightAware ADS-B
03:01AM 30.7710 -93.5926 237° Southwest 423 487 23,900 -720 Descending FlightAware ADS-B
03:01AM 30.7390 -93.6503 237° Southwest 422 486 23,300 -1,140 Descending FlightAware ADS-B
03:02AM 30.7070 -93.7077 237° Southwest 419 482 22,800 -1,020 Descending FlightAware ADS-B
03:02AM 30.6752 -93.7646 237° Southwest 415 478 22,300 -1,020 Descending FlightAware ADS-B
03:03AM 30.6440 -93.8208 237° Southwest 412 474 21,800 -1,140 Descending FlightAware ADS-B
03:03AM 30.6129 -93.8764 237° Southwest 407 468 21,200 -1,140 Descending FlightAware ADS-B
03:04AM 30.5818 -93.9317 237° Southwest 403 464 20,700 -1,020 Descending FlightAware ADS-B
03:04AM 30.5512 -93.9863 237° Southwest 401 461 20,200 -1,020 Descending FlightAware ADS-B
03:05AM 30.5203 -94.0413 237° Southwest 401 461 19,700 -1,020 Descending FlightAware ADS-B
03:05AM 30.4899 -94.0956 237° Southwest 400 460 19,200 -1,020 Descending FlightAware ADS-B
03:06AM 30.4595 -94.1498 237° Southwest 401 461 18,700 -1,020 Descending FlightAware ADS-B
03:06AM 30.4290 -94.2040 237° Southwest 401 461 18,200 -1,140 Descending FlightAware ADS-B
03:07AM 30.3981 -94.2586 237° Southwest 402 463 17,600 -1,140 Descending FlightAware ADS-B
03:07AM 30.3670 -94.3135 237° Southwest 401 461 17,100 -1,020 Descending FlightAware ADS-B
03:08AM 30.3363 -94.3680 237° Southwest 400 460 16,600 -1,200 Descending FlightAware ADS-B
03:08AM 30.3059 -94.4215 237° Southwest 394 453 15,900 -2,220 Descending FlightAware ADS-B
03:09AM 30.2761 -94.4742 237° Southwest 384 442 14,400 -3,240 Descending FlightAware ADS-B
03:09AM 30.2469 -94.5259 237° Southwest 376 433 12,700 -3,180 Descending FlightAware ADS-B
03:10AM 30.2184 -94.5758 237° Southwest 367 422 11,200 -2,100 Descending FlightAware ADS-B
03:10AM 30.1987 -94.6104 236° Southwest 341 392 10,900 -900 Descending FlightAware ADS-B
03:11AM 30.1819 -94.6397 237° Southwest 318 366 10,600 -840 Descending FlightAware ADS-B
03:11AM 30.1648 -94.6696 237° Southwest 298 343 10,300 -1,140 Descending FlightAware ADS-B
03:11AM 30.1534 -94.6898 236° Southwest 289 333 9,900 -1,200 Descending FlightAware ADS-B
03:12AM 30.1422 -94.7091 237° Southwest 281 323 9,700 -780 Descending FlightAware ADS-B
03:12AM 30.1317 -94.7276 237° Southwest 271 312 9,500 -1,020 Descending FlightAware ADS-B
03:12AM 30.1214 -94.7456 237° Southwest 264 304 9,200 -1,440 Descending FlightAware ADS-B
03:12AM 30.1111 -94.7636 237° Southwest 260 299 8,800 -1,620 Descending FlightAware ADS-B
03:13AM 30.1013 -94.7810 237° Southwest 257 296 8,400 -1,500 Descending FlightAware ADS-B
03:13AM 30.0933 -94.7952 236° Southwest 256 295 8,100 -1,200 Descending FlightAware ADS-B
03:13AM 30.0887 -94.8032 237° Southwest 254 292 8,000 -1,200 Descending FlightAware ADS-B
03:13AM 30.0843 -94.8109 236° Southwest 254 292 7,800 -2,100 Descending FlightAware ADS-B
03:13AM 30.0733 -94.8298 237° Southwest 260 299 7,200 -2,340 Descending FlightAware ADS-B
03:13AM 30.0658 -94.8429 236° Southwest 265 305 6,800 -2,100 Descending FlightAware ADS-B
03:14AM 30.0554 -94.8608 237° Southwest 267 307 6,300 -1,560 Descending FlightAware ADS-B
03:14AM 30.0451 -94.8788 237° Southwest 267 307 6,000 -1,380 Descending FlightAware ADS-B
03:14AM 30.0348 -94.8969 237° Southwest 263 303 5,600 -1,440 Descending FlightAware ADS-B
03:14AM 30.0246 -94.9148 237° Southwest 262 302 5,300 -1,440 Descending FlightAware ADS-B
03:15AM 30.0147 -94.9321 237° Southwest 257 296 4,900 -1,440 Descending FlightAware ADS-B
03:15AM 30.0048 -94.9495 236° Southwest 256 295 4,600 -1,380 Descending FlightAware ADS-B
03:15AM 29.9975 -94.9622 236° Southwest 255 293 4,300 -1,440 Descending FlightAware ADS-B
03:15AM 29.9884 -94.9779 237° Southwest 252 290 4,000 -1,140 Descending FlightAware ADS-B
03:16AM 29.9832 -94.9870 242° Southwest 247 284 3,900 -540 Descending FlightAware ADS-B
03:16AM 29.9811 -94.9915 249° West 246 283 3,900 -900 Level FlightAware ADS-B
03:16AM 29.9795 -94.9962 257° West 247 284 3,800 -900 Descending FlightAware ADS-B
03:16AM 29.9785 -95.0011 261° West 247 284 3,800  Level FlightAware ADS-B
03:16AM 29.9779 -95.0053 265° West 247 284 3,800  Level FlightAware ADS-B
03:16AM 29.9774 -95.0120 268° West 245 282 3,800  Level FlightAware ADS-B
03:16AM 29.9772 -95.0185 271° West 241 277 3,800  Level FlightAware ADS-B
03:16AM 29.9773 -95.0309 270° West 232 267 3,800  Level FlightAware ADS-B
03:16AM 29.9774 -95.0510 270° West 223 257 3,800 -240 Level FlightAware ADS-B
03:17AM 29.9775 -95.0694 270° West 222 255 3,700 -660 Descending FlightAware ADS-B
03:17AM 29.9776 -95.0849 270° West 217 250 3,500 -960 Descending FlightAware ADS-B
03:17AM 29.9776 -95.0987 270° West 214 246 3,300 -1,080 Descending FlightAware ADS-B
03:17AM 29.9776 -95.1159 270° West 208 239 3,000 -1,020 Descending FlightAware ADS-B
03:18AM 29.9776 -95.1324 270° West 201 231 2,800 -1,020 Descending FlightAware ADS-B
03:18AM 29.9775 -95.1480 270° West 195 224 2,500 -1,080 Descending FlightAware ADS-B
03:18AM 29.9775 -95.1562 271° West 196 226 2,400 -900 Descending FlightAware ADS-B
03:18AM 29.9776 -95.1686 270° West 196 226 2,200 -1,140 Descending FlightAware ADS-B
03:18AM 29.9776 -95.1791 270° West 192 221 2,000 -1,200 Descending FlightAware ADS-B
03:19AM 29.9776 -95.1992 270° West 187 215 1,600 -1,080 Descending FlightAware ADS-B
03:19AM 29.9776 -95.2130 270° West 166 191 1,400 -780 Descending FlightAware ADS-B
03:19AM 29.9775 -95.2273 270° West 156 180 1,200 -900 Descending FlightAware ADS-B
03:19AM 29.9775 -95.2349 270° West 153 176 1,000 -780 Descending FlightAware ADS-B
03:20AM 29.9775 -95.2466 272° West 150 173 900 -660 Descending FlightAware ADS-B
03:20AM 29.9776 -95.2506 269° West 149 171 800 -900 Descending FlightAware ADS-B
03:20AM 29.9775 -95.2578 271° West 147 169 700 -720 Descending FlightAware ADS-B
03:20AM 29.9776 -95.2695 269° West 146 168 500 -840 Descending FlightAware ADS-B
03:20AM 29.9775 -95.2749 271° West 144 166 400 -1,080 Descending FlightAware ADS-B
03:20AM 29.9776 -95.2835 270° West 150 173 200 -1,200 Descending FlightAware ADS-B
03:21AM 29.9776 -95.2961 270° West 149 171 -780 Descending FlightAware ADS-B